Auroraville, Wisconsin
Current Conditions -  °F | °C
As of 4:56 AM on Thursday 27 Nov 2014 (Local Time) from KY50 Reporting Station
Overcast Overcast  
Wind Chill:   Ceiling: 4300
Heat Index: 18°   Visibility: 10mi
Dew Point: 13°   Wind: 12mph
Humidity: 81%   Direction: 330°NNW
Pressure: 30.29"   Gusts: NA
Location:  43.9938°N, 88.9686°W
Report Text: KY50 271056Z AUTO 33010KT 10SM SCT036 BKN043 OVC100 M08/M11 A3029 RMK AO2 TSNO T10771105 OVC V BKN SLP268
Loading
Personal Weather Stations






























Interactive Weather Map New forecast layout! Learn more

10-Day Weather Forecast

Advertisements
Track Severe Weather on mobile